Island Lake, Washington
Current Conditions -  °F | °C
As of 12:35 AM on Tuesday 27 Jan 2015 (Local Time) from KPWT Reporting Station
Few Clouds Few Clouds  
Wind Chill: 45°   Ceiling: Unl
Heat Index: 48°   Visibility: 10mi
Dew Point: 46°   Wind: 8mph
Humidity: 93%   Direction: 210°SSW
Pressure: 30.01"   Gusts: NA
Location:  47.7571°N, 122.623°W
Report Text: KPWT 270835Z AUTO 21007KT 10SM FEW019 09/08 A3001 RMK AO1
Loading
Personal Weather Stations






























Interactive Weather Map New forecast layout! Learn more

10-Day Weather Forecast

Advertisements
Track Severe Weather on mobile